SBPA Informações do Aeroporto

Informações da Pista
Pista 11 Comprimento 7480 ft Largura 138 ft
Elevação 11 ft Limite 0 ft Heading 91
Pista 29 Comprimento 7480 ft Largura 138 ft
Elevação 11 ft Limite 0 ft Heading 271
Frequências do Aeroporto
Tipo APP Nome PALEGRE AP Frequência 119 MHZ
Tipo ATIS Nome ATIS Frequência 127.85 MHZ
Tipo GND Nome GND Frequência 121.9 MHZ
Tipo TWR Nome PALEGRE TW Frequência 118.1 MHZ
Navaids do Aeroporto
Tipo NDB Nome Pestana Frequência 395 KHZ
Tipo NDB Nome Guaiba Frequência 345 KHZ
Tipo NDB Nome Salgado Frequência 315 KHZ
Tipo NDB Nome Porto Alegre Frequência 330 KHZ
Tipo VOR-DME Nome Porto Alegre Frequência 114000 KHZ
Informações meteorológicas do aeroporto e NOTAM
ADDS - METARS form results

(1035 UTC 19 September 2019)
Data provider http://aviationweather.gov/metar/data/
 
METAR text: SBPA 191028Z VRB02KT 4000 BCFG BR NSC 12/12 Q1008
Conditions at: SBPA (PORTO ALEGRE/SAL, BR) observed 1028 UTC 19 September 2019
Temperature: 12.0°C (54°F)
Dewpoint: 12.0°C (54°F) [RH = 100%]
Pressure (altimeter): 29.76 inches Hg (1008.0 mb)
Winds: variable direction winds at 2 MPH (2 knots; 1.0 m/s)
Visibility: 2.49 miles (4.01 km)
Ceiling: at least 12,000 feet AGL
Clouds: sky clear below 12,000 feet AGL
Weather: BCFG BR  (patches of fog, mist)

METAR text: SBPA 191000Z VRB02KT 5000 BCFG BR NSC 11/11 Q1008
Conditions at: SBPA (PORTO ALEGRE/SAL, BR) observed 1000 UTC 19 September 2019
Temperature: 11.0°C (52°F)
Dewpoint: 11.0°C (52°F) [RH = 100%]
Pressure (altimeter): 29.76 inches Hg (1008.0 mb)
Winds: variable direction winds at 2 MPH (2 knots; 1.0 m/s)
Visibility: 3 miles ( 5 km)
Ceiling: at least 12,000 feet AGL
Clouds: sky clear below 12,000 feet AGL
Weather: BCFG BR  (patches of fog, mist)

Forecast for: SBPA (PORTO ALEGRE/SAL, BR)
Text: TAF SBPA 190930Z 1912/2012 10005KT 8000 NSC TX21/1918Z TN13/2008Z
Forecast period: 1200 UTC 19 September 2019 to 1200 UTC 20 September 2019
Forecast type: FROM: standard forecast or significant change
Winds: from the E (100 degrees) at 6 MPH (5 knots; 2.6 m/s)
Visibility: 5 miles (8 km)
Ceiling: unknown
Clouds: missing
Weather: no significant weather forecast for this period
Text: BECMG 1912/1914 22007KT CAVOK RMK PER
Forecast period: 1200 UTC 19 September 2019 to 1200 UTC 20 September 2019
Forecast type: BECOMING: Conditions expected to become as follows by 1400 UTC 19 September 2019
Winds: from the SW (220 degrees) at 8 MPH (7 knots; 3.6 m/s)
Visibility: 6 or more miles 10+ km)
Ceiling: unknown
Clouds: missing
Weather: NSW  (no significant weather)